createdAt,value
2023-02-14T00:00:29.744Z,6.00
2023-02-14T00:02:57.092Z,7.95
2023-02-14T00:05:23.864Z,5.05
2023-02-14T00:07:50.529Z,6.68
2023-02-14T00:10:17.641Z,7.00
2023-02-14T00:12:44.391Z,6.75
2023-02-14T00:15:22.970Z,6.30
2023-02-14T00:17:51.926Z,7.05
2023-02-14T00:20:18.638Z,6.93
2023-02-14T00:22:45.188Z,5.35
2023-02-14T00:25:11.802Z,7.75
2023-02-14T00:27:38.387Z,6.78
2023-02-14T00:30:09.566Z,5.03
2023-02-14T00:32:42.019Z,6.15
2023-02-14T00:35:09.785Z,8.10
2023-02-14T00:37:36.735Z,4.57
2023-02-14T00:40:03.738Z,8.18
2023-02-14T00:42:31.085Z,6.72
2023-02-14T00:44:57.594Z,7.43
2023-02-14T00:47:24.166Z,7.70
2023-02-14T00:49:51.637Z,5.53
2023-02-14T00:52:18.326Z,6.07
2023-02-14T00:54:44.979Z,6.00
2023-02-14T00:57:13.805Z,6.90
2023-02-14T00:59:40.357Z,5.72
2023-02-14T01:02:06.949Z,6.25
2023-02-14T01:04:34.401Z,5.68
2023-02-14T01:07:01.003Z,6.70
2023-02-14T01:09:27.790Z,4.88
2023-02-14T01:11:54.441Z,6.10
2023-02-14T01:14:21.073Z,6.57
2023-02-14T01:16:49.612Z,6.65
2023-02-14T01:19:16.792Z,6.78
2023-02-14T01:21:43.797Z,5.25
2023-02-14T01:24:11.830Z,7.22
2023-02-14T01:26:38.421Z,5.55
2023-02-14T01:29:05.097Z,7.07
2023-02-14T01:31:33.729Z,7.47
2023-02-14T01:34:00.647Z,6.78
2023-02-14T01:36:28.579Z,5.95
2023-02-14T01:38:59.031Z,8.80
2023-02-14T01:41:27.940Z,7.18
2023-02-14T01:44:20.462Z,8.07
2023-02-14T01:46:47.419Z,9.95
2023-02-14T01:49:13.917Z,7.20
2023-02-14T01:51:50.267Z,7.88
2023-02-14T01:54:18.722Z,9.82
2023-02-14T01:56:49.831Z,7.63
2023-02-14T01:59:21.014Z,9.83
2023-02-14T02:01:49.787Z,6.17
2023-02-14T02:04:22.460Z,7.30
2023-02-14T02:06:55.403Z,8.30
2023-02-14T02:09:28.897Z,7.78
2023-02-14T02:11:55.421Z,5.40
2023-02-14T02:14:23.038Z,7.18
2023-02-14T02:17:01.727Z,8.13
2023-02-14T02:20:05.977Z,8.27
2023-02-14T02:22:35.562Z,7.10
2023-02-14T02:25:59.532Z,5.68
2023-02-14T02:28:50.585Z,7.50
2023-02-14T02:31:26.387Z,8.82
2023-02-14T02:34:22.372Z,7.60
2023-02-14T02:37:13.262Z,6.15
2023-02-14T02:40:10.591Z,6.35
2023-02-14T02:43:01.722Z,5.45
2023-02-14T02:45:57.356Z,6.72
2023-02-14T02:48:34.441Z,5.20
2023-02-14T02:51:23.916Z,6.13
2023-02-14T02:53:50.808Z,6.60
2023-02-14T02:56:44.449Z,6.18
2023-02-14T02:59:20.647Z,8.20
2023-02-14T03:02:03.947Z,5.93
2023-02-14T03:04:51.675Z,7.20
2023-02-14T03:07:36.680Z,7.53
2023-02-14T03:10:26.546Z,6.80
2023-02-14T03:12:54.282Z,8.95
2023-02-14T03:15:49.050Z,6.55
2023-02-14T03:18:23.588Z,5.28
2023-02-14T03:21:00.638Z,7.78
2023-02-14T03:23:59.604Z,5.43
2023-02-14T03:26:36.250Z,7.25
2023-02-14T03:29:05.822Z,5.13
2023-02-14T03:31:35.794Z,7.13
2023-02-14T03:34:07.408Z,7.05
2023-02-14T03:36:52.096Z,5.07
2023-02-14T03:39:32.607Z,6.90
2023-02-14T03:42:08.189Z,5.22
2023-02-14T03:44:37.873Z,6.78
2023-02-14T03:47:11.121Z,6.70
2023-02-14T03:49:43.910Z,7.03
2023-02-14T03:52:12.498Z,6.15
2023-02-14T03:54:39.134Z,7.80
2023-02-14T03:57:23.647Z,7.00
2023-02-14T03:59:50.712Z,6.97
2023-02-14T04:02:24.508Z,8.48
2023-02-14T04:04:54.318Z,6.70
2023-02-14T04:07:23.068Z,7.18
2023-02-14T04:09:50.320Z,7.32
2023-02-14T04:12:26.556Z,7.60
2023-02-14T04:17:43.739Z,7.43
2023-02-14T04:20:10.711Z,7.70
2023-02-14T04:22:37.310Z,6.97
2023-02-14T04:25:04.170Z,8.73
2023-02-14T04:27:30.805Z,4.55
2023-02-14T04:29:57.489Z,5.35
2023-02-14T04:32:24.202Z,5.53
2023-02-14T04:34:50.978Z,8.85
2023-02-14T04:37:19.815Z,8.25
2023-02-14T04:39:46.868Z,8.18
2023-02-14T04:42:13.796Z,6.13
2023-02-14T04:44:40.353Z,6.22
2023-02-14T04:47:08.108Z,6.15
2023-02-14T04:49:35.311Z,10.80
2023-02-14T04:52:02.284Z,8.68
2023-02-14T04:54:28.952Z,8.25
2023-02-14T04:56:55.719Z,6.40
2023-02-14T04:59:24.682Z,8.77
2023-02-14T05:01:52.228Z,9.15
2023-02-14T05:04:18.866Z,9.77
2023-02-14T05:06:45.447Z,8.80
2023-02-14T05:09:12.127Z,7.60
2023-02-14T05:11:38.760Z,9.18
2023-02-14T05:14:05.382Z,9.80
2023-02-14T05:16:32.031Z,10.07
2023-02-14T05:18:58.630Z,10.73
2023-02-14T05:21:25.453Z,8.68
2023-02-14T05:23:52.092Z,6.95
2023-02-14T05:26:18.664Z,8.63
2023-02-14T05:28:45.240Z,9.65
2023-02-14T05:31:11.955Z,9.43
2023-02-14T05:33:38.629Z,7.25
2023-02-14T05:36:05.438Z,11.63
2023-02-14T05:38:33.512Z,10.02
2023-02-14T05:41:02.864Z,8.23
2023-02-14T05:43:30.397Z,10.15
2023-02-14T05:45:58.113Z,8.98
2023-02-14T05:48:25.161Z,12.13
2023-02-14T05:50:51.814Z,8.65
2023-02-14T05:53:18.434Z,8.75
2023-02-14T05:55:45.146Z,9.30
2023-02-14T05:58:12.590Z,10.32
2023-02-14T06:00:41.409Z,11.38
2023-02-14T06:03:08.444Z,12.88
2023-02-14T06:05:35.018Z,8.98
2023-02-14T06:08:01.694Z,9.70
2023-02-14T06:10:28.800Z,11.43
2023-02-14T06:12:55.586Z,13.18
2023-02-14T06:15:22.769Z,9.80
2023-02-14T06:17:54.795Z,10.88
2023-02-14T06:22:48.928Z,13.32
2023-02-14T06:25:15.704Z,8.95
2023-02-14T06:27:42.511Z,12.75
2023-02-14T06:30:10.280Z,12.32
2023-02-14T06:32:36.934Z,10.32
2023-02-14T06:35:04.151Z,14.52
2023-02-14T06:37:30.776Z,10.52
2023-02-14T06:39:57.451Z,12.82
2023-02-14T06:42:24.266Z,9.57
2023-02-14T06:44:51.023Z,13.93
2023-02-14T06:47:17.710Z,10.55
2023-02-14T06:49:44.311Z,11.20
2023-02-14T06:52:11.213Z,10.30
2023-02-14T06:54:37.756Z,12.10
2023-02-14T06:57:04.393Z,10.30
2023-02-14T06:59:30.976Z,13.15
2023-02-14T07:01:57.511Z,12.18
2023-02-14T07:04:24.045Z,12.70
2023-02-14T07:06:50.746Z,9.73
2023-02-14T07:09:18.310Z,11.43
2023-02-14T07:11:45.464Z,14.15
2023-02-14T07:14:13.296Z,9.85
2023-02-14T07:16:40.144Z,15.13
2023-02-14T07:19:06.690Z,15.35
2023-02-14T07:21:33.248Z,15.63
2023-02-14T07:23:59.820Z,12.38
2023-02-14T07:26:26.389Z,15.15
2023-02-14T07:28:53.130Z,12.70
2023-02-14T07:31:23.564Z,15.02
2023-02-14T07:33:51.545Z,15.18
2023-02-14T07:36:18.402Z,13.60
2023-02-14T07:38:45.076Z,8.70
2023-02-14T07:41:11.640Z,11.70
2023-02-14T07:43:39.583Z,14.23
2023-02-14T07:46:06.865Z,11.82
2023-02-14T07:48:34.585Z,11.32
2023-02-14T07:51:01.967Z,15.73
2023-02-14T07:53:28.984Z,15.30
2023-02-14T07:55:55.736Z,13.60
2023-02-14T07:58:22.667Z,18.38
2023-02-14T08:00:49.527Z,18.75
2023-02-14T08:03:16.165Z,16.55
2023-02-14T08:05:42.848Z,14.55
2023-02-14T08:08:09.634Z,17.63
2023-02-14T08:10:36.242Z,23.17
2023-02-14T08:13:03.625Z,15.93
2023-02-14T08:16:04.785Z,20.02
2023-02-14T08:18:42.084Z,17.45
2023-02-14T08:21:11.221Z,23.88
2023-02-14T08:23:38.433Z,21.25
2023-02-14T08:26:05.474Z,25.55
2023-02-14T08:28:33.279Z,23.80
2023-02-14T08:31:00.693Z,23.08
2023-02-14T08:33:27.655Z,19.20
2023-02-14T08:35:54.294Z,23.70
2023-02-14T08:38:20.950Z,14.73
2023-02-14T08:40:47.663Z,24.55
2023-02-14T08:43:15.171Z,21.60
2023-02-14T16:11:44.686Z,12.82
2023-02-14T16:14:27.157Z,16.88
2023-02-14T16:17:14.071Z,16.27
2023-02-14T16:19:43.398Z,12.88
2023-02-14T16:22:13.090Z,12.55
2023-02-14T16:24:40.435Z,11.27
2023-02-14T16:27:07.059Z,11.20
2023-02-14T16:29:36.801Z,20.23
2023-02-14T16:32:20.689Z,13.52
2023-02-14T16:34:48.671Z,11.38
2023-02-14T16:41:29.533Z,10.82
2023-02-14T16:43:56.710Z,9.73
2023-02-14T16:46:30.265Z,11.55
2023-02-14T16:48:57.470Z,9.88
2023-02-14T16:51:27.964Z,10.52
2023-02-14T16:53:57.863Z,10.98
2023-02-14T16:56:32.350Z,12.15
2023-02-14T16:58:59.009Z,11.68
2023-02-14T17:01:26.007Z,15.20
2023-02-14T17:03:52.599Z,14.95
2023-02-14T17:06:23.184Z,24.42
2023-02-14T17:08:52.213Z,16.85
2023-02-14T17:11:19.947Z,14.90
2023-02-14T17:13:47.856Z,15.38
2023-02-14T17:16:16.420Z,16.02
2023-02-14T17:18:48.661Z,21.27
2023-02-14T17:21:17.283Z,16.65
2023-02-14T17:23:43.791Z,18.63
2023-02-14T17:26:11.227Z,22.10
2023-02-14T17:28:37.928Z,15.45
2023-02-14T17:31:05.007Z,23.48
2023-02-14T17:33:33.327Z,17.50
2023-02-14T17:36:09.596Z,19.75
2023-02-14T17:44:07.313Z,16.33
2023-02-14T17:46:34.045Z,17.67
2023-02-14T17:49:02.603Z,15.70
2023-02-14T17:51:29.943Z,20.20
2023-02-14T17:53:58.976Z,17.92
2023-02-14T17:56:26.408Z,19.00
2023-02-14T17:58:55.105Z,20.88
2023-02-14T18:01:25.974Z,19.98
2023-02-14T18:03:54.558Z,17.65
2023-02-14T18:06:21.738Z,16.73
2023-02-14T18:08:50.527Z,18.17
2023-02-14T18:11:18.538Z,13.85
2023-02-14T18:13:45.843Z,17.60
2023-02-14T18:16:14.914Z,16.60
2023-02-14T18:18:42.142Z,21.92
2023-02-14T18:21:11.017Z,17.27
2023-02-14T18:27:36.517Z,16.77
2023-02-14T18:30:03.164Z,23.08
2023-02-14T18:32:29.744Z,19.88
2023-02-14T18:34:56.357Z,19.75
2023-02-14T18:41:47.721Z,19.98
2023-02-14T18:44:14.318Z,16.33
2023-02-14T18:46:40.912Z,18.15
2023-02-14T18:49:08.382Z,15.82
2023-02-14T18:51:39.141Z,16.08
2023-02-14T18:54:06.928Z,14.65
2023-02-14T18:56:35.982Z,14.07
2023-02-14T18:59:08.967Z,14.77
2023-02-14T19:01:39.537Z,12.63
2023-02-14T19:04:09.146Z,11.75
2023-02-14T19:06:36.492Z,19.20
2023-02-14T19:09:06.995Z,14.50
2023-02-14T19:11:33.814Z,16.70
2023-02-14T19:14:02.198Z,12.98
2023-02-14T19:16:33.101Z,13.40
2023-02-14T19:19:02.515Z,13.32
2023-02-14T19:21:33.612Z,14.80
2023-02-14T19:24:02.138Z,16.42
2023-02-14T19:26:32.840Z,13.65
2023-02-14T19:29:01.814Z,13.85
2023-02-14T19:31:29.433Z,12.85
2023-02-14T19:33:56.286Z,13.82
2023-02-14T19:36:23.937Z,12.93
2023-02-14T19:38:52.739Z,12.75
2023-02-14T19:41:26.084Z,14.02
2023-02-14T19:43:56.761Z,15.07
2023-02-14T19:46:24.382Z,14.00
2023-02-14T19:48:51.436Z,12.32
2023-02-14T19:51:21.867Z,13.75
2023-02-14T19:53:49.717Z,10.90
2023-02-14T19:56:25.134Z,11.05
2023-02-14T19:58:52.421Z,13.98
2023-02-14T20:01:28.124Z,15.27
2023-02-14T20:03:54.809Z,20.13
2023-02-14T20:06:23.212Z,12.90
2023-02-14T20:08:49.803Z,15.40
2023-02-14T20:11:41.300Z,13.48
2023-02-14T20:14:08.949Z,15.77
2023-02-14T20:16:36.793Z,15.65
2023-02-14T20:19:12.004Z,14.60
2023-02-14T20:21:41.757Z,18.98
2023-02-14T20:24:09.361Z,18.08
2023-02-14T20:26:37.231Z,16.75
2023-02-14T20:29:04.897Z,16.90
2023-02-14T20:31:33.339Z,20.17
2023-02-14T20:34:00.235Z,18.88
2023-02-14T20:36:27.723Z,17.02
2023-02-14T20:38:59.212Z,18.50
2023-02-14T20:41:27.660Z,19.10
2023-02-14T20:43:55.235Z,16.27
2023-02-14T20:46:22.845Z,17.08
2023-02-14T20:48:50.939Z,19.63
2023-02-14T20:51:20.054Z,20.65
2023-02-14T20:53:47.783Z,18.33
2023-02-14T20:56:15.648Z,14.23
2023-02-14T20:58:42.599Z,19.23
2023-02-14T21:01:15.125Z,16.52
2023-02-14T21:03:43.783Z,17.98
2023-02-14T21:06:13.502Z,16.98
2023-02-14T21:08:42.165Z,17.08
2023-02-14T21:11:11.221Z,18.33
2023-02-14T21:13:37.829Z,18.55
2023-02-14T21:16:07.451Z,19.05
2023-02-14T21:18:35.193Z,18.33
2023-02-14T21:21:05.914Z,18.67
2023-02-14T21:23:32.536Z,15.45
2023-02-14T21:25:59.325Z,16.83
2023-02-14T21:28:26.215Z,17.40
2023-02-14T21:30:52.916Z,20.63
2023-02-14T21:33:19.633Z,23.80
2023-02-14T21:35:46.335Z,22.08
2023-02-14T21:38:12.902Z,21.55
2023-02-14T21:40:39.448Z,22.65
2023-02-14T21:43:06.028Z,19.67
2023-02-14T21:45:50.836Z,22.42
2023-02-14T21:48:35.995Z,22.25
2023-02-14T21:51:06.409Z,21.52
2023-02-14T21:53:33.322Z,22.58
2023-02-14T21:56:10.299Z,20.13
2023-02-14T21:58:38.292Z,15.82
2023-02-14T22:01:05.956Z,18.48
2023-02-14T22:03:33.257Z,16.80
2023-02-14T22:06:04.720Z,17.25
2023-02-14T22:08:32.118Z,21.05
2023-02-14T22:11:00.002Z,22.85
2023-02-14T22:13:26.916Z,22.27
2023-02-14T22:15:53.541Z,25.55
2023-02-14T22:18:20.190Z,26.02
2023-02-14T22:20:46.743Z,15.45
2023-02-14T22:23:13.321Z,23.02
2023-02-14T22:25:39.920Z,20.40
2023-02-14T22:28:06.475Z,24.15
2023-02-14T22:30:33.027Z,16.05
2023-02-14T22:32:59.641Z,23.92
2023-02-14T22:35:27.046Z,20.75
2023-02-14T22:37:53.660Z,23.13
2023-02-14T22:40:20.250Z,21.25
2023-02-14T22:42:46.882Z,21.38
2023-02-14T22:45:13.482Z,19.15
2023-02-14T22:47:40.111Z,19.48
2023-02-14T22:50:07.513Z,20.60
2023-02-14T22:52:34.832Z,20.77
2023-02-14T22:55:01.370Z,20.70
2023-02-14T22:57:27.972Z,19.00
2023-02-14T22:59:54.551Z,19.25
2023-02-14T23:02:21.134Z,24.15
2023-02-14T23:04:47.658Z,20.10
2023-02-14T23:07:14.203Z,18.70
2023-02-14T23:09:40.779Z,20.10
2023-02-14T23:12:27.309Z,17.73
2023-02-14T23:15:12.491Z,18.63
2023-02-14T23:17:57.646Z,22.52
2023-02-14T23:20:43.085Z,17.92
2023-02-14T23:23:09.632Z,22.55
2023-02-14T23:25:36.248Z,18.85
2023-02-14T23:28:02.757Z,22.00
2023-02-14T23:30:29.397Z,27.08
2023-02-14T23:32:55.921Z,19.02
2023-02-14T23:35:22.503Z,19.63
2023-02-14T23:37:49.083Z,20.70
2023-02-14T23:40:15.715Z,18.83
2023-02-14T23:42:42.253Z,21.75
2023-02-14T23:45:28.032Z,20.58
2023-02-14T23:47:54.624Z,19.55
2023-02-14T23:50:21.220Z,21.63
2023-02-14T23:52:47.995Z,19.42
2023-02-14T23:55:14.623Z,22.77
2023-02-14T23:57:41.161Z,24.00
